Time;durP1;ratioP1;P1;durP2;ratioP2;P2;SDS_P1;SDS_P2;PMS_P1;PMS_P2;Temp;Humidity;BMP_temperature;BMP_pressure;BME280_temperature;BME280_humidity;BME280_pressure;Samples;Min_cycle;Max_cycle;Signal;HPM_P1;HPM_P2
2022/06/26 00:01:02;;;;;;;6.22;4.95;;;21.70;99.90;;;;;;10273284;29;20270;-84
2022/06/26 00:06:23;;;;;;;6.63;5.30;;;21.70;99.90;;;;;;10250019;29;20452;-84
2022/06/26 00:11:45;;;;;;;4.60;4.20;;;21.70;99.90;;;;;;10238361;29;20359;-83
2022/06/26 00:17:06;;;;;;;5.50;4.30;;;21.60;99.90;;;;;;10232623;29;20205;-81
2022/06/26 00:22:28;;;;;;;7.47;4.55;;;21.60;99.90;;;;;;10280249;29;20235;-84
2022/06/26 00:27:49;;;;;;;7.22;4.82;;;21.50;1.00;;;;;;10281098;29;20197;-83
2022/06/26 00:33:11;;;;;;;6.25;5.13;;;21.50;1.00;;;;;;10310428;28;20249;-82
2022/06/26 00:38:32;;;;;;;5.35;4.85;;;21.40;1.00;;;;;;10303210;28;20389;-83
2022/06/26 00:43:53;;;;;;;5.13;4.43;;;21.40;1.00;;;;;;10308662;28;20229;-83
2022/06/26 00:49:15;;;;;;;8.70;4.18;;;21.40;1.00;;;;;;10361123;28;20426;-83
2022/06/26 00:54:37;;;;;;;4.78;4.28;;;21.30;1.00;;;;;;10346124;28;20269;-82
2022/06/26 00:59:58;;;;;;;4.70;4.20;;;21.30;1.00;;;;;;10345883;28;20236;-82
2022/06/26 01:05:19;;;;;;;5.13;4.10;;;21.30;1.00;;;;;;10314126;28;20528;-82
2022/06/26 01:10:41;;;;;;;6.95;4.32;;;21.30;1.00;;;;;;10319741;28;20274;-77
2022/06/26 01:16:03;;;;;;;4.88;4.40;;;21.20;1.00;;;;;;10304697;28;20580;-84
2022/06/26 01:21:24;;;;;;;6.13;4.82;;;21.20;1.00;;;;;;10318010;28;20221;-82
2022/06/26 01:26:46;;;;;;;5.68;4.80;;;21.10;1.00;;;;;;10318610;28;20224;-77
2022/06/26 01:32:08;;;;;;;5.22;4.55;;;21.10;1.00;;;;;;10303844;28;20237;-77
2022/06/26 01:37:30;;;;;;;5.78;5.03;;;21.10;1.00;;;;;;10303497;28;20195;-77
2022/06/26 01:42:53;;;;;;;6.30;4.90;;;21.00;1.00;;;;;;10303531;28;20443;-77
2022/06/26 01:48:15;;;;;;;6.15;4.55;;;20.90;1.00;;;;;;10340938;28;20496;-77
2022/06/26 01:53:37;;;;;;;6.28;4.75;;;20.90;1.00;;;;;;10357010;28;20205;-77
2022/06/26 01:58:59;;;;;;;5.68;4.57;;;20.80;1.00;;;;;;10342968;28;20225;-77
2022/06/26 02:04:26;;;;;;;5.50;4.70;;;20.80;1.00;;;;;;10333534;28;20399;-77
2022/06/26 02:15:36;;;;;;;6.80;5.53;;;20.70;1.00;;;;;;10302193;28;20206;-77
2022/06/26 02:20:58;;;;;;;10.85;6.85;;;20.70;1.00;;;;;;10301951;28;20221;-77
2022/06/26 02:26:20;;;;;;;11.25;7.85;;;20.70;1.00;;;;;;10301600;28;20505;-77
2022/06/26 02:31:44;;;;;;;8.65;6.68;;;20.70;1.00;;;;;;10285539;28;20313;-84
2022/06/26 02:37:07;;;;;;;6.75;5.80;;;20.70;1.00;;;;;;10285389;28;20190;-83
2022/06/26 02:42:28;;;;;;;5.82;5.13;;;20.70;1.00;;;;;;10316161;28;20224;-83
2022/06/26 02:47:52;;;;;;;5.75;4.70;;;20.80;1.00;;;;;;10333987;28;20452;-83
2022/06/26 02:53:14;;;;;;;5.45;4.93;;;20.80;1.00;;;;;;10341637;28;20204;-83
2022/06/26 02:58:36;;;;;;;5.03;4.38;;;20.80;1.00;;;;;;10341836;28;20200;-83
2022/06/26 03:03:58;;;;;;;4.65;4.13;;;20.80;1.00;;;;;;10338406;28;20487;-83
2022/06/26 03:09:19;;;;;;;7.45;4.40;;;20.90;1.00;;;;;;10300497;28;20200;-83
2022/06/26 03:14:40;;;;;;;5.32;4.50;;;20.90;1.00;;;;;;10316314;28;20278;-82
2022/06/26 03:20:03;;;;;;;5.53;4.22;;;21.00;1.00;;;;;;10283850;28;20206;-77
2022/06/26 03:25:24;;;;;;;5.47;3.90;;;21.00;1.00;;;;;;10300067;28;20222;-77
2022/06/26 03:30:49;;;;;;;5.72;4.28;;;21.10;1.00;;;;;;10300346;28;20222;-78
2022/06/26 03:36:11;;;;;;;4.68;3.88;;;21.10;1.00;;;;;;10289039;28;20305;-79
2022/06/26 03:41:32;;;;;;;5.47;4.72;;;21.10;1.00;;;;;;10271235;29;20239;-80
2022/06/26 03:46:54;;;;;;;6.35;5.15;;;21.20;1.00;;;;;;10333801;28;20236;-81
2022/06/26 03:52:17;;;;;;;5.57;4.82;;;21.20;1.00;;;;;;10361639;28;20190;-77
2022/06/26 03:57:38;;;;;;;5.68;4.05;;;21.30;1.00;;;;;;10334307;28;20198;-77
2022/06/26 04:03:05;;;;;;;6.28;4.70;;;21.30;1.00;;;;;;10348562;28;20221;-83
2022/06/26 04:08:27;;;;;;;5.55;4.13;;;21.30;1.00;;;;;;10267983;29;20198;-79
2022/06/26 04:13:58;;;;;;;4.82;4.32;;;21.40;1.60;;;;;;10268343;29;20501;-79
2022/06/26 04:19:20;;;;;;;5.57;4.47;;;21.40;1.00;;;;;;10300739;28;20560;-77
2022/06/26 04:24:42;;;;;;;7.95;4.85;;;21.50;1.00;;;;;;10306523;28;20218;-79
2022/06/26 04:30:04;;;;;;;4.55;4.10;;;21.60;17.30;;;;;;10306252;28;20246;-77
2022/06/26 04:35:26;;;;;;;6.03;4.70;;;21.60;14.50;;;;;;10289754;28;20195;-82
2022/06/26 04:40:47;;;;;;;5.78;4.45;;;21.70;15.20;;;;;;10306388;28;20198;-79
2022/06/26 04:46:09;;;;;;;7.65;4.78;;;21.80;27.80;;;;;;10311840;28;20301;-79
2022/06/26 04:51:35;;;;;;;4.57;4.13;;;21.80;35.10;;;;;;10305783;28;20250;-78
2022/06/26 04:57:12;;;;;;;5.07;4.47;;;21.80;21.90;;;;;;10304692;28;20195;-77
2022/06/26 05:02:33;;;;;;;5.75;4.57;;;21.90;23.70;;;;;;10302381;28;20229;-77
2022/06/26 05:08:09;;;;;;;8.38;4.60;;;22.00;31.30;;;;;;10299216;28;20532;-77
2022/06/26 05:13:31;;;;;;;5.72;4.80;;;22.00;20.90;;;;;;10304533;28;20457;-78
2022/06/26 05:19:24;;;;;;;6.53;5.25;;;22.10;27.00;;;;;;10318775;28;20198;-81
2022/06/26 05:24:49;;;;;;;5.57;4.88;;;22.20;24.70;;;;;;10318872;28;20294;-81
2022/06/26 05:30:10;;;;;;;10.68;4.10;;;22.40;13.40;;;;;;10301648;28;20238;-79
2022/06/26 05:35:35;;;;;;;4.82;4.28;;;22.50;1.00;;;;;;10287220;28;20194;-79
2022/06/26 05:40:56;;;;;;;5.28;4.60;;;22.60;99.90;;;;;;10301036;28;20209;-78
2022/06/26 05:46:17;;;;;;;8.32;5.00;;;22.80;99.90;;;;;;10325218;28;20583;-78
2022/06/26 05:52:14;;;;;;;5.47;4.63;;;22.90;99.90;;;;;;10337297;28;20202;-77
2022/06/26 05:57:50;;;;;;;9.35;5.00;;;23.00;99.90;;;;;;10343089;28;20425;-77
2022/06/26 06:03:40;;;;;;;7.25;4.72;;;23.20;99.90;;;;;;10214738;29;20228;-77
2022/06/26 06:09:03;;;;;;;6.05;5.10;;;23.30;99.90;;;;;;10167513;29;20208;-78
2022/06/26 06:14:24;;;;;;;5.57;5.00;;;23.60;99.90;;;;;;10194430;29;20275;-77
2022/06/26 06:19:47;;;;;;;5.38;4.45;;;23.80;97.20;;;;;;10217490;29;20211;-78
2022/06/26 06:25:10;;;;;;;7.25;4.90;;;24.00;62.50;;;;;;10219908;29;20232;-77
2022/06/26 06:30:35;;;;;;;6.80;4.75;;;24.20;29.30;;;;;;10203505;29;20240;-78
2022/06/26 06:35:57;;;;;;;5.05;4.57;;;24.50;1.00;;;;;;10186779;29;20457;-77
2022/06/26 06:41:21;;;;;;;6.65;4.65;;;24.90;1.00;;;;;;10245666;29;20417;-77
2022/06/26 06:46:54;;;;;;;7.10;4.63;;;25.50;99.90;;;;;;10311541;28;20485;-80
2022/06/26 06:52:27;;;;;;;6.75;4.80;;;26.00;99.90;;;;;;10341268;28;20218;-78
2022/06/26 06:57:49;;;;;;;5.53;4.53;;;26.60;99.90;;;;;;10341113;28;20194;-78
2022/06/26 07:03:11;;;;;;;4.82;4.05;;;27.20;1.00;;;;;;10355297;28;20289;-78
2022/06/26 07:08:32;;;;;;;7.10;4.43;;;27.80;1.00;;;;;;10314926;28;20277;-77
2022/06/26 07:13:53;;;;;;;5.97;4.95;;;28.30;1.00;;;;;;10299965;28;20520;-78
2022/06/26 07:19:38;;;;;;;9.05;5.00;;;28.70;99.90;;;;;;10300776;28;20203;-78
2022/06/26 07:24:59;;;;;;;7.07;5.00;;;29.20;1.00;;;;;;10300516;28;20520;-78
2022/06/26 07:30:28;;;;;;;4.75;4.30;;;29.40;99.90;;;;;;10283498;28;20238;-80
2022/06/26 07:35:53;;;;;;;5.53;4.20;;;29.80;99.90;;;;;;10299672;28;20203;-78
2022/06/26 07:41:17;;;;;;;9.77;4.80;;;30.40;4.90;;;;;;10274106;28;20212;-77
2022/06/26 07:46:39;;;;;;;7.93;4.85;;;30.70;1.00;;;;;;10313423;28;20201;-79
2022/06/26 07:52:02;;;;;;;8.63;4.75;;;30.80;1.00;;;;;;10340376;28;20200;-78
2022/06/26 07:57:23;;;;;;;5.18;4.03;;;30.90;1.00;;;;;;10354547;28;20190;-78
2022/06/26 08:02:45;;;;;;;4.47;4.07;;;31.10;1.00;;;;;;10354513;28;20229;-78
2022/06/26 08:08:08;;;;;;;7.30;4.95;;;31.50;1.00;;;;;;10316165;28;20217;-82
2022/06/26 08:13:29;;;;;;;12.07;4.55;;;31.50;1.00;;;;;;10314320;28;20225;-84
2022/06/26 08:18:51;;;;;;;5.05;4.35;;;31.20;1.00;;;;;;10295201;28;20211;-80
2022/06/26 08:24:14;;;;;;;7.28;4.93;;;31.00;1.00;;;;;;10297899;28;20222;-83
2022/06/26 08:29:37;;;;;;;7.65;4.38;;;30.60;1.00;;;;;;10313656;28;20199;-83
2022/06/26 08:34:59;;;;;;;9.82;5.10;;;30.90;1.00;;;;;;10289399;28;20249;-82
2022/06/26 08:40:20;;;;;;;7.57;4.85;;;31.60;1.00;;;;;;10290244;28;20194;-79
2022/06/26 08:45:43;;;;;;;6.97;4.07;;;32.40;1.00;;;;;;10337566;28;20471;-81
2022/06/26 08:51:05;;;;;;;5.53;4.28;;;32.60;1.00;;;;;;10360927;28;20190;-80
2022/06/26 08:56:27;;;;;;;4.88;4.38;;;33.10;1.00;;;;;;10360743;28;20499;-80
2022/06/26 09:01:48;;;;;;;4.88;3.53;;;33.40;99.90;;;;;;10343087;28;20208;-81
2022/06/26 09:07:10;;;;;;;6.05;3.55;;;33.60;99.90;;;;;;10326661;28;20497;-78
2022/06/26 09:12:36;;;;;;;5.00;3.90;;;33.90;99.90;;;;;;10318144;28;20200;-85
2022/06/26 09:18:05;;;;;;;7.63;3.67;;;34.20;99.90;;;;;;10317661;28;20214;-79
2022/06/26 09:23:27;;;;;;;5.13;3.35;;;34.40;99.90;;;;;;10274791;28;20533;-79
2022/06/26 09:28:50;;;;;;;7.53;3.47;;;34.60;99.90;;;;;;10318663;28;20214;-79
2022/06/26 09:34:27;;;;;;;5.97;4.07;;;34.60;99.90;;;;;;10318165;28;20242;-79
2022/06/26 09:39:48;;;;;;;4.05;3.25;;;34.60;99.90;;;;;;10318384;28;20194;-79
2022/06/26 09:45:10;;;;;;;5.90;4.07;;;;;;;;;;10330572;28;20225;-80
2022/06/26 09:50:32;;;;;;;5.25;3.13;;;35.60;99.90;;;;;;10358202;28;20430;-78
2022/06/26 09:55:57;;;;;;;4.38;3.30;;;35.60;99.90;;;;;;10357824;28;20196;-80
2022/06/26 10:07:04;;;;;;;7.78;3.53;;;33.10;99.90;;;;;;10323525;28;20529;-78
2022/06/26 10:12:26;;;;;;;3.83;3.38;;;33.60;99.90;;;;;;10317261;28;20241;-81
2022/06/26 10:17:57;;;;;;;6.65;3.15;;;33.90;99.90;;;;;;10316479;28;20198;-80
2022/06/26 10:23:36;;;;;;;5.43;3.10;;;34.00;99.90;;;;;;10316359;28;20517;-79
2022/06/26 10:29:02;;;;;;;3.40;2.70;;;34.70;99.90;;;;;;10316457;28;20241;-78
2022/06/26 10:34:25;;;;;;;3.33;2.88;;;34.10;99.90;;;;;;10315716;28;20253;-78
2022/06/26 10:39:49;;;;;;;4.55;2.78;;;34.50;99.90;;;;;;10316116;28;20248;-79
2022/06/26 10:45:23;;;;;;;5.18;2.92;;;34.90;93.50;;;;;;10328793;28;20245;-78
2022/06/26 10:51:01;;;;;;;4.95;2.50;;;34.90;44.60;;;;;;10356085;28;20423;-79
2022/06/26 10:56:22;;;;;;;2.88;2.53;;;35.30;88.10;;;;;;10337886;28;20202;-79
2022/06/26 11:01:46;;;;;;;16.95;3.10;;;35.00;53.20;;;;;;10355752;28;20240;-82
2022/06/26 11:07:08;;;;;;;7.72;3.10;;;34.90;59.80;;;;;;10302053;28;20564;-85
2022/06/26 11:12:40;;;;;;;3.53;2.55;;;34.40;28.40;;;;;;10300994;28;20523;-80
2022/06/26 11:18:04;;;;;;;4.88;2.58;;;34.50;58.90;;;;;;10302186;28;20225;-81
2022/06/26 11:23:33;;;;;;;3.13;2.58;;;34.60;64.30;;;;;;10297272;28;20462;-79
2022/06/26 11:28:56;;;;;;;5.28;2.90;;;34.80;47.80;;;;;;10287104;28;20202;-78
2022/06/26 11:34:18;;;;;;;4.57;2.70;;;34.60;29.50;;;;;;10314662;28;20222;-78
2022/06/26 11:39:40;;;;;;;3.92;3.00;;;34.60;22.60;;;;;;10276313;29;20207;-80
2022/06/26 11:45:03;;;;;;;4.93;2.92;;;34.90;24.20;;;;;;10274582;29;20223;-79
2022/06/26 11:50:29;;;;;;;2.97;2.67;;;34.80;31.20;;;;;;10273245;28;20196;-78
2022/06/26 11:56:03;;;;;;;5.82;3.25;;;34.50;22.20;;;;;;10274504;29;20196;-78
2022/06/26 12:01:36;;;;;;;3.63;3.13;;;33.90;6.20;;;;;;10273382;29;20188;-77
2022/06/26 12:06:57;;;;;;;3.42;2.90;;;33.90;1.20;;;;;;10312100;28;20224;-78
2022/06/26 12:12:19;;;;;;;4.22;2.70;;;33.40;11.40;;;;;;10321758;28;20190;-78
2022/06/26 12:17:40;;;;;;;3.88;2.97;;;33.30;17.10;;;;;;10321077;28;20290;-78
2022/06/26 12:23:02;;;;;;;3.25;2.90;;;33.60;6.50;;;;;;10306813;28;20259;-78
2022/06/26 12:28:23;;;;;;;6.20;2.58;;;32.90;5.90;;;;;;10321415;28;20380;-78
2022/06/26 12:33:46;;;;;;;3.00;2.70;;;32.70;2.50;;;;;;10320254;28;20230;-78
2022/06/26 12:39:09;;;;;;;5.03;2.90;;;33.20;10.80;;;;;;10306654;28;20448;-77
2022/06/26 12:44:40;;;;;;;3.95;2.75;;;33.00;5.00;;;;;;10330083;28;20217;-79
2022/06/26 12:50:03;;;;;;;4.95;2.72;;;32.50;1.00;;;;;;10349164;28;20228;-78
2022/06/26 12:55:24;;;;;;;2.60;2.40;;;32.40;5.40;;;;;;10344198;28;20209;-80
2022/06/26 13:00:46;;;;;;;4.90;2.63;;;32.80;19.70;;;;;;10361447;28;20269;-82
2022/06/26 13:06:07;;;;;;;4.80;3.10;;;32.80;22.70;;;;;;10334301;28;20273;-84
2022/06/26 13:11:29;;;;;;;6.75;3.33;;;32.30;7.20;;;;;;10320947;28;20261;-80
2022/06/26 13:16:51;;;;;;;6.57;3.00;;;32.10;4.60;;;;;;10317910;28;20294;-78
2022/06/26 13:22:12;;;;;;;8.23;3.38;;;32.30;8.30;;;;;;10289001;28;20194;-77
2022/06/26 13:27:34;;;;;;;2.50;2.28;;;31.70;10.00;;;;;;10302952;28;20253;-78
2022/06/26 13:32:55;;;;;;;5.32;2.80;;;31.70;23.00;;;;;;10304959;28;20230;-78
2022/06/26 13:38:17;;;;;;;3.17;2.88;;;32.10;22.40;;;;;;10303872;28;20489;-78
2022/06/26 13:43:38;;;;;;;3.08;2.78;;;32.10;15.30;;;;;;10288412;28;20241;-83
2022/06/26 13:49:00;;;;;;;7.07;2.65;;;32.00;16.20;;;;;;10358625;28;20190;-80
2022/06/26 13:54:21;;;;;;;3.10;2.80;;;32.30;24.40;;;;;;10340858;28;20236;-80
2022/06/26 13:59:43;;;;;;;7.13;3.20;;;32.40;19.00;;;;;;10340453;28;20493;-78
2022/06/26 14:05:05;;;;;;;4.18;2.80;;;32.60;14.50;;;;;;10321155;28;20237;-80
2022/06/26 14:10:27;;;;;;;4.13;2.45;;;32.20;13.90;;;;;;10317274;28;20516;-80
2022/06/26 14:15:48;;;;;;;2.95;2.75;;;31.70;8.00;;;;;;10316947;28;20203;-84
2022/06/26 14:21:10;;;;;;;3.13;2.38;;;31.50;1.00;;;;;;10316856;28;20198;-84
2022/06/26 14:26:32;;;;;;;2.83;2.50;;;31.30;2.00;;;;;;10317318;28;20217;-79
2022/06/26 14:31:53;;;;;;;3.30;2.50;;;31.40;15.00;;;;;;10301009;28;20249;-80
2022/06/26 14:37:30;;;;;;;5.78;2.90;;;30.90;13.30;;;;;;10315611;28;20251;-79
2022/06/26 14:42:51;;;;;;;5.20;2.90;;;30.90;18.70;;;;;;10316065;28;20236;-80
2022/06/26 14:48:13;;;;;;;4.15;2.90;;;30.90;17.50;;;;;;10353286;28;20272;-79
2022/06/26 14:53:35;;;;;;;8.30;2.78;;;30.90;28.80;;;;;;10338565;28;20276;-78
2022/06/26 14:58:57;;;;;;;3.92;3.33;;;30.70;29.40;;;;;;10355758;28;20194;-77
2022/06/26 15:04:19;;;;;;;3.05;2.67;;;30.50;24.00;;;;;;10323160;28;20450;-80
2022/06/26 15:09:41;;;;;;;9.07;3.33;;;30.70;16.70;;;;;;10314516;28;20441;-78
2022/06/26 15:15:03;;;;;;;5.15;3.40;;;30.60;25.90;;;;;;10315068;28;20488;-83
2022/06/26 15:20:26;;;;;;;3.90;2.72;;;30.50;26.40;;;;;;10290136;28;20232;-78
2022/06/26 15:25:48;;;;;;;5.07;3.08;;;30.30;42.60;;;;;;10315030;28;20222;-80
2022/06/26 15:31:10;;;;;;;5.72;3.05;;;30.30;42.80;;;;;;10299690;28;20310;-80
2022/06/26 15:36:32;;;;;;;3.30;3.00;;;30.30;69.80;;;;;;10299529;28;20281;-79
2022/06/26 15:41:53;;;;;;;6.88;2.65;;;30.20;30.30;;;;;;10318563;28;20190;-77
2022/06/26 15:47:15;;;;;;;3.00;2.80;;;30.10;26.50;;;;;;10337592;28;20410;-78
2022/06/26 15:52:37;;;;;;;3.33;3.00;;;30.10;26.40;;;;;;10282556;29;20197;-78
2022/06/26 15:57:59;;;;;;;5.68;2.97;;;30.00;27.10;;;;;;10267817;29;20541;-78
2022/06/26 16:03:20;;;;;;;3.85;2.78;;;29.80;19.50;;;;;;10275165;28;20242;-78
2022/06/26 16:08:42;;;;;;;3.65;3.22;;;29.60;15.10;;;;;;10317828;28;20220;-77
2022/06/26 16:14:03;;;;;;;7.07;3.10;;;29.60;16.60;;;;;;10321395;28;20194;-78
2022/06/26 16:19:25;;;;;;;4.50;3.20;;;29.40;14.80;;;;;;10321208;28;20210;-77
2022/06/26 16:30:26;;;;;;;7.35;3.40;;;29.40;18.20;;;;;;10320901;28;20450;-79
2022/06/26 16:35:48;;;;;;;7.57;3.22;;;29.20;21.90;;;;;;10320746;28;20262;-78
2022/06/26 16:41:10;;;;;;;5.78;3.47;;;29.10;25.50;;;;;;10306101;28;20354;-78
2022/06/26 16:46:31;;;;;;;3.03;2.72;;;29.00;36.30;;;;;;10326858;28;20226;-79
2022/06/26 16:51:52;;;;;;;4.35;2.95;;;28.90;32.30;;;;;;10344992;28;20213;-80
2022/06/26 16:57:14;;;;;;;3.92;2.85;;;28.90;48.50;;;;;;10360312;28;20492;-80
2022/06/26 17:02:36;;;;;;;4.60;3.17;;;28.90;33.00;;;;;;10355126;28;20409;-80
2022/06/26 17:07:58;;;;;;;3.20;2.90;;;28.90;34.40;;;;;;10314363;28;20202;-82
2022/06/26 17:13:19;;;;;;;4.03;2.90;;;28.90;36.20;;;;;;10319692;28;20190;-79
2022/06/26 17:18:42;;;;;;;6.13;3.00;;;28.80;39.60;;;;;;10317061;28;20504;-84
2022/06/26 17:24:04;;;;;;;6.45;3.15;;;28.70;40.70;;;;;;10319273;28;20246;-81
2022/06/26 17:29:26;;;;;;;20.27;3.55;;;28.60;42.90;;;;;;10319978;28;20265;-83
2022/06/26 17:34:48;;;;;;;5.18;3.25;;;28.50;52.80;;;;;;10304073;28;20198;-82
2022/06/26 17:40:09;;;;;;;8.27;3.67;;;28.50;46.60;;;;;;10318268;28;20252;-78
2022/06/26 17:45:33;;;;;;;3.45;2.78;;;28.40;49.50;;;;;;10303547;28;20234;-81
2022/06/26 17:50:55;;;;;;;6.30;3.63;;;28.30;60.00;;;;;;10342846;28;20273;-82
2022/06/26 17:56:16;;;;;;;7.30;3.28;;;28.20;56.30;;;;;;10345619;28;20202;-79
2022/06/26 18:01:38;;;;;;;5.53;2.83;;;28.30;99.90;;;;;;10358422;28;20209;-85
2022/06/26 18:06:59;;;;;;;3.70;3.25;;;28.00;60.60;;;;;;10328026;28;20221;-81
2022/06/26 18:12:21;;;;;;;4.28;2.85;;;28.00;99.90;;;;;;10302941;28;20411;-78
2022/06/26 18:17:45;;;;;;;6.70;3.45;;;27.80;68.20;;;;;;10268253;28;20198;-80
2022/06/26 18:23:08;;;;;;;5.63;3.20;;;27.70;69.60;;;;;;10318092;28;20233;-79
2022/06/26 18:28:32;;;;;;;7.93;3.55;;;;;;;;;;10316528;28;20221;-78
2022/06/26 18:33:53;;;;;;;5.22;3.28;;;27.70;1.00;;;;;;10285622;28;20470;-78
2022/06/26 18:39:15;;;;;;;4.97;3.22;;;27.50;99.90;;;;;;10301893;28;20194;-78
2022/06/26 18:44:36;;;;;;;5.93;3.33;;;27.30;90.70;;;;;;10306437;28;20252;-78
2022/06/26 18:49:59;;;;;;;6.20;3.50;;;27.20;92.10;;;;;;10356000;28;20193;-79
2022/06/26 18:55:21;;;;;;;3.80;3.47;;;27.20;99.90;;;;;;10338904;28;20198;-79
2022/06/26 19:00:42;;;;;;;3.88;3.35;;;27.00;99.00;;;;;;10276684;29;20242;-78
2022/06/26 19:06:03;;;;;;;3.38;3.05;;;26.90;99.90;;;;;;10296769;28;20268;-78
2022/06/26 19:17:19;;;;;;;11.02;4.53;;;26.70;99.90;;;;;;10315055;28;20286;-78
2022/06/26 19:22:41;;;;;;;3.83;3.40;;;26.50;99.90;;;;;;10305103;28;20233;-83
2022/06/26 19:28:02;;;;;;;5.55;3.17;;;26.40;99.90;;;;;;10314678;28;20217;-81
2022/06/26 19:33:24;;;;;;;3.65;3.05;;;26.40;99.90;;;;;;10315302;28;20229;-81
2022/06/26 19:38:45;;;;;;;5.75;4.00;;;26.30;99.90;;;;;;10300487;28;20204;-79
2022/06/26 19:44:07;;;;;;;5.18;4.10;;;26.10;99.90;;;;;;10319095;28;20256;-78
2022/06/26 19:55:09;;;;;;;3.67;3.38;;;25.90;99.90;;;;;;10337638;28;20396;-78
2022/06/26 20:00:31;;;;;;;4.88;4.32;;;25.80;99.90;;;;;;10260670;29;20205;-83
2022/06/26 20:05:53;;;;;;;5.75;4.15;;;25.70;99.90;;;;;;10293874;28;20299;-80
2022/06/26 20:11:14;;;;;;;4.30;3.90;;;25.60;99.90;;;;;;10314535;28;20385;-83
2022/06/26 20:16:35;;;;;;;7.47;3.85;;;25.50;99.90;;;;;;10303519;28;20521;-82
2022/06/26 20:21:57;;;;;;;5.13;3.72;;;25.40;99.90;;;;;;10274831;29;20233;-83
2022/06/26 20:27:19;;;;;;;12.10;4.68;;;25.30;99.90;;;;;;10296984;28;20453;-81
2022/06/26 20:32:40;;;;;;;8.55;4.47;;;25.30;99.90;;;;;;10306804;28;20268;-82
2022/06/26 20:38:01;;;;;;;9.15;4.40;;;25.10;1.00;;;;;;10321037;28;20187;-83
2022/06/26 20:43:23;;;;;;;5.13;4.50;;;25.00;1.00;;;;;;10321029;28;20222;-80
2022/06/26 20:48:44;;;;;;;7.13;4.88;;;24.90;1.00;;;;;;10361290;28;20194;-83
2022/06/26 20:54:06;;;;;;;9.02;4.55;;;24.80;1.00;;;;;;10343903;28;20202;-84
2022/06/26 20:59:28;;;;;;;6.97;5.43;;;24.80;1.00;;;;;;10328391;28;20270;-81
2022/06/26 21:04:52;;;;;;;11.23;5.72;;;24.60;99.90;;;;;;10303267;28;20233;-81
2022/06/26 21:10:13;;;;;;;7.78;6.18;;;24.60;99.90;;;;;;10320196;28;20220;-84
2022/06/26 21:15:36;;;;;;;9.82;6.05;;;24.50;1.00;;;;;;10316608;28;20381;-79
2022/06/26 21:20:58;;;;;;;6.25;5.20;;;24.30;1.00;;;;;;10311867;28;20240;-78
2022/06/26 21:26:19;;;;;;;6.93;4.72;;;24.20;1.00;;;;;;10318762;28;20269;-80
2022/06/26 21:31:41;;;;;;;7.20;5.00;;;24.10;1.00;;;;;;10318678;28;20236;-79
2022/06/26 21:37:03;;;;;;;6.35;4.55;;;24.00;1.00;;;;;;10301449;28;20202;-78
2022/06/26 21:42:25;;;;;;;5.70;4.63;;;23.80;99.90;;;;;;10301315;28;20376;-79
2022/06/26 21:47:47;;;;;;;5.47;4.57;;;23.70;1.00;;;;;;10334675;28;20221;-77
2022/06/26 21:53:08;;;;;;;7.00;4.82;;;23.70;1.00;;;;;;10341141;28;20629;-78
2022/06/26 21:58:30;;;;;;;6.45;5.13;;;23.50;1.00;;;;;;10326299;28;20191;-78
2022/06/26 22:03:52;;;;;;;10.75;5.03;;;23.40;99.90;;;;;;10320068;28;20202;-77
2022/06/26 22:09:13;;;;;;;8.60;4.80;;;23.40;1.00;;;;;;10317470;28;20194;-78
2022/06/26 22:14:35;;;;;;;5.03;4.53;;;23.30;1.00;;;;;;10302658;28;20197;-79
2022/06/26 22:19:56;;;;;;;8.40;5.32;;;23.20;1.00;;;;;;10316577;28;20198;-77
2022/06/26 22:25:20;;;;;;;7.18;5.47;;;23.10;1.00;;;;;;10316601;28;20226;-78
2022/06/26 22:30:42;;;;;;;8.20;6.00;;;23.00;99.90;;;;;;10298846;28;20226;-78
2022/06/26 22:36:04;;;;;;;7.47;5.53;;;22.90;1.00;;;;;;10316525;28;20225;-78
2022/06/26 22:41:26;;;;;;;6.70;6.00;;;22.90;1.00;;;;;;10301761;28;20204;-78
2022/06/26 22:46:48;;;;;;;8.60;5.63;;;22.80;99.90;;;;;;10341704;28;20225;-78
2022/06/26 22:52:09;;;;;;;7.68;5.95;;;22.70;99.90;;;;;;10355312;28;20189;-78
2022/06/26 22:57:31;;;;;;;8.35;6.45;;;22.60;99.90;;;;;;10299056;28;20206;-78
2022/06/26 23:02:52;;;;;;;7.03;5.53;;;22.50;1.00;;;;;;10315750;28;20270;-77
2022/06/26 23:08:13;;;;;;;9.25;5.32;;;22.40;1.00;;;;;;10307663;28;20288;-77
2022/06/26 23:13:35;;;;;;;6.30;5.68;;;22.40;1.00;;;;;;10315358;28;20190;-77
2022/06/26 23:18:57;;;;;;;9.63;5.35;;;22.30;1.00;;;;;;10314865;28;20237;-77
2022/06/26 23:24:19;;;;;;;9.95;5.55;;;22.30;1.00;;;;;;10300296;28;20234;-77
2022/06/26 23:29:40;;;;;;;12.45;5.30;;;22.20;1.00;;;;;;10300051;28;20198;-77
2022/06/26 23:35:02;;;;;;;6.40;4.80;;;22.10;1.00;;;;;;10284788;28;20423;-77
2022/06/26 23:40:23;;;;;;;6.25;4.65;;;22.10;81.70;;;;;;10314873;28;20241;-76
2022/06/26 23:45:45;;;;;;;8.02;5.93;;;22.00;99.90;;;;;;10333596;28;20252;-77
2022/06/26 23:51:06;;;;;;;8.50;5.85;;;21.90;99.90;;;;;;10354909;28;20190;-76
2022/06/26 23:56:28;;;;;;;8.35;5.63;;;21.90;99.90;;;;;;10318024;28;20206;-77
